createdAt,value
2019-05-20T00:00:50.002Z,19.67
2019-05-20T00:03:18.432Z,16.10
2019-05-20T00:05:47.256Z,16.17
2019-05-20T00:08:15.882Z,12.97
2019-05-20T00:10:44.870Z,13.70
2019-05-20T00:13:13.293Z,11.10
2019-05-20T00:15:41.743Z,10.03
2019-05-20T00:18:10.162Z,8.97
2019-05-20T00:20:38.678Z,9.20
2019-05-20T00:23:07.105Z,12.60
2019-05-20T00:25:35.554Z,8.43
2019-05-20T00:28:05.508Z,9.80
2019-05-20T00:30:34.025Z,8.87
2019-05-20T00:33:02.462Z,13.83
2019-05-20T00:35:30.890Z,11.53
2019-05-20T00:37:59.338Z,13.60
2019-05-20T00:40:27.921Z,11.47
2019-05-20T00:42:57.890Z,10.10
2019-05-20T00:45:26.343Z,9.20
2019-05-20T00:47:54.762Z,12.40
2019-05-20T00:50:23.195Z,15.27
2019-05-20T00:52:51.782Z,9.67
2019-05-20T00:55:26.312Z,8.50
2019-05-20T00:57:54.819Z,8.83
2019-05-20T01:00:23.982Z,8.87
2019-05-20T01:02:56.888Z,12.00
2019-05-20T01:05:23.036Z,11.73
2019-05-20T01:07:51.478Z,10.17
2019-05-20T01:10:20.091Z,13.53
2019-05-20T01:12:48.531Z,10.03
2019-05-20T01:15:17.301Z,10.13
2019-05-20T01:17:45.818Z,10.13
2019-05-20T01:20:14.779Z,10.20
2019-05-20T01:22:43.239Z,10.57
2019-05-20T01:25:12.606Z,9.33
2019-05-20T01:27:41.063Z,14.53
2019-05-20T01:30:10.134Z,12.30
2019-05-20T01:32:40.127Z,12.50
2019-05-20T01:35:08.794Z,14.03
2019-05-20T01:37:37.254Z,10.20
2019-05-20T01:40:06.051Z,10.03
2019-05-20T01:42:34.506Z,11.63
2019-05-20T01:45:03.063Z,10.57
2019-05-20T01:47:31.519Z,11.40
2019-05-20T01:49:59.951Z,11.03
2019-05-20T01:52:28.458Z,12.43
2019-05-20T01:54:56.899Z,11.60
2019-05-20T01:57:25.367Z,14.13
2019-05-20T01:59:53.863Z,12.20
2019-05-20T02:02:22.379Z,10.67
2019-05-20T02:04:50.853Z,10.03
2019-05-20T02:07:19.346Z,11.37
2019-05-20T02:09:48.029Z,10.60
2019-05-20T02:12:16.535Z,12.20
2019-05-20T02:14:58.562Z,12.87
2019-05-20T02:17:26.995Z,11.50
2019-05-20T02:19:55.535Z,11.10
2019-05-20T02:22:23.967Z,13.07
2019-05-20T02:24:52.414Z,11.13
2019-05-20T02:27:20.835Z,12.57
2019-05-20T02:29:49.282Z,11.60
2019-05-20T02:32:17.711Z,10.37
2019-05-20T02:34:47.467Z,9.13
2019-05-20T02:37:15.889Z,9.57
2019-05-20T02:39:44.390Z,8.00
2019-05-20T02:42:14.228Z,10.20
2019-05-20T02:44:42.663Z,8.57
2019-05-20T02:47:11.096Z,7.20
2019-05-20T02:49:39.542Z,6.50
2019-05-20T02:52:07.966Z,7.30
2019-05-20T02:54:36.422Z,9.67
2019-05-20T02:57:04.912Z,6.50
2019-05-20T02:59:33.453Z,6.03
2019-05-20T03:02:01.866Z,6.20
2019-05-20T03:04:30.286Z,5.67
2019-05-20T03:07:00.279Z,6.53
2019-05-20T03:09:28.722Z,4.80
2019-05-20T03:11:57.160Z,4.77
2019-05-20T03:14:27.220Z,4.27
2019-05-20T03:16:55.668Z,4.10
2019-05-20T03:19:24.083Z,4.00
2019-05-20T03:21:52.614Z,4.47
2019-05-20T03:24:21.106Z,3.60
2019-05-20T03:26:49.629Z,3.13
2019-05-20T03:29:18.124Z,3.90
2019-05-20T03:31:46.565Z,4.23
2019-05-20T03:34:42.204Z,7.13
2019-05-20T03:36:45.153Z,3.83
2019-05-20T03:39:13.570Z,3.77
2019-05-20T03:41:42.020Z,3.33
2019-05-20T03:44:10.447Z,5.20
2019-05-20T03:46:38.962Z,5.20
2019-05-20T03:49:07.392Z,5.50
2019-05-20T03:51:35.923Z,3.57
2019-05-20T03:54:04.486Z,4.37
2019-05-20T03:56:32.943Z,4.50
2019-05-20T03:59:01.354Z,4.00
2019-05-20T04:01:29.802Z,4.53
2019-05-20T04:03:58.232Z,4.13
2019-05-20T04:06:26.803Z,4.97
2019-05-20T04:08:56.882Z,6.53
2019-05-20T04:11:25.320Z,5.00
2019-05-20T04:13:53.765Z,6.20
2019-05-20T04:16:22.183Z,6.43
2019-05-20T04:18:53.981Z,7.40
2019-05-20T04:21:20.782Z,6.80
2019-05-20T04:23:49.392Z,8.40
2019-05-20T04:26:18.284Z,8.20
2019-05-20T04:28:46.728Z,12.27
2019-05-20T04:31:15.148Z,11.63
2019-05-20T04:33:44.192Z,13.60
2019-05-20T04:36:12.615Z,14.00
2019-05-20T04:38:41.078Z,15.70
2019-05-20T04:41:09.568Z,13.83
2019-05-20T04:43:38.024Z,15.30
2019-05-20T04:46:06.460Z,17.30
2019-05-20T04:48:36.437Z,20.07
2019-05-20T04:51:05.143Z,20.77
2019-05-20T04:53:33.671Z,22.13
2019-05-20T04:56:02.101Z,21.53
2019-05-20T04:58:30.553Z,22.07
2019-05-20T05:00:59.143Z,24.07
2019-05-20T05:03:27.675Z,28.80
2019-05-20T05:05:56.542Z,26.90
2019-05-20T05:08:25.268Z,23.50
2019-05-20T05:10:54.443Z,21.67
2019-05-20T05:13:23.509Z,24.57
2019-05-20T05:15:52.207Z,25.50
2019-05-20T05:18:21.074Z,24.93
2019-05-20T05:20:49.808Z,21.80
2019-05-20T05:23:18.672Z,21.10
2019-05-20T05:25:47.136Z,30.97
2019-05-20T05:28:15.691Z,22.67
2019-05-20T05:30:46.182Z,26.47
2019-05-20T05:33:14.615Z,25.07
2019-05-20T05:35:52.982Z,30.37
2019-05-20T05:38:13.432Z,22.57
2019-05-20T05:40:42.103Z,25.53
2019-05-20T05:43:10.541Z,24.83
2019-05-20T05:45:39.438Z,28.63
2019-05-20T05:48:07.980Z,24.03
2019-05-20T05:50:36.431Z,24.77
2019-05-20T05:53:05.032Z,27.53
2019-05-20T05:55:33.628Z,24.47
2019-05-20T05:58:02.119Z,25.37
2019-05-20T06:00:30.583Z,25.50
2019-05-20T06:02:59.026Z,23.23
2019-05-20T06:05:31.323Z,25.63
2019-05-20T06:07:57.699Z,25.00
2019-05-20T06:10:26.414Z,27.17
2019-05-20T06:12:54.901Z,24.53
2019-05-20T06:15:23.786Z,24.23
2019-05-20T06:17:52.211Z,23.90
2019-05-20T06:20:21.008Z,26.40
2019-05-20T06:22:49.449Z,25.10
2019-05-20T06:25:19.427Z,25.70
2019-05-20T06:27:47.862Z,25.47
2019-05-20T06:30:16.953Z,25.27
2019-05-20T06:32:45.455Z,22.00
2019-05-20T06:35:15.028Z,25.63
2019-05-20T06:37:45.658Z,22.60
2019-05-20T06:40:15.803Z,22.30
2019-05-20T06:42:44.434Z,30.97
2019-05-20T06:45:13.197Z,23.97
2019-05-20T06:47:41.851Z,26.30
2019-05-20T06:50:10.612Z,25.03
2019-05-20T06:52:39.059Z,26.53
2019-05-20T06:55:08.473Z,24.27
2019-05-20T06:57:37.057Z,25.07
2019-05-20T07:00:08.251Z,25.93
2019-05-20T07:02:36.695Z,27.60
2019-05-20T07:05:06.976Z,23.70
2019-05-20T07:07:35.503Z,28.23
2019-05-20T07:10:05.970Z,24.50
2019-05-20T07:12:41.219Z,23.87
2019-05-20T07:15:07.762Z,23.77
2019-05-20T07:17:36.346Z,27.63
2019-05-20T07:20:05.917Z,23.20
2019-05-20T07:22:34.513Z,23.23
2019-05-20T07:25:03.046Z,24.80
2019-05-20T07:27:31.594Z,24.50
2019-05-20T07:30:00.069Z,19.83
2019-05-20T07:32:28.519Z,24.17
2019-05-20T07:34:57.024Z,20.00
2019-05-20T07:37:25.589Z,25.30
2019-05-20T07:39:54.178Z,22.00
2019-05-20T07:42:22.613Z,22.27
2019-05-20T07:44:51.106Z,23.00
2019-05-20T07:47:20.277Z,22.73
2019-05-20T07:49:49.423Z,27.00
2019-05-20T07:52:20.123Z,23.80
2019-05-20T07:54:51.672Z,25.00
2019-05-20T07:57:23.505Z,23.10
2019-05-20T07:59:56.602Z,25.50
2019-05-20T08:02:26.962Z,24.57
2019-05-20T08:04:55.435Z,27.10
2019-05-20T08:07:29.710Z,24.27
2019-05-20T08:09:54.325Z,26.50
2019-05-20T08:12:22.827Z,24.73
2019-05-20T08:14:51.347Z,25.20
2019-05-20T08:17:19.845Z,23.37
2019-05-20T08:19:50.139Z,23.37
2019-05-20T08:22:18.567Z,26.20
2019-05-20T08:24:47.218Z,22.27
2019-05-20T08:27:15.784Z,22.00
2019-05-20T08:29:45.853Z,20.30
2019-05-20T08:32:14.295Z,20.83
2019-05-20T08:34:42.729Z,23.97
2019-05-20T08:37:12.939Z,23.93
2019-05-20T08:39:41.387Z,23.13
2019-05-20T08:42:10.841Z,26.27
2019-05-20T08:44:39.303Z,24.47
2019-05-20T08:47:07.725Z,26.13
2019-05-20T08:49:36.221Z,28.07
2019-05-20T08:52:04.859Z,23.20
2019-05-20T08:54:33.328Z,29.47
2019-05-20T08:57:01.854Z,22.83
2019-05-20T08:59:30.324Z,26.17
2019-05-20T09:01:58.850Z,24.43
2019-05-20T09:04:27.384Z,27.50
2019-05-20T09:06:55.832Z,27.60
2019-05-20T09:09:24.387Z,28.63
2019-05-20T09:11:53.043Z,27.17
2019-05-20T09:14:21.503Z,25.80
2019-05-20T09:16:50.089Z,30.07
2019-05-20T09:19:18.524Z,25.20
2019-05-20T09:21:46.983Z,32.23
2019-05-20T09:24:18.883Z,26.23
2019-05-20T09:26:45.576Z,26.07
2019-05-20T09:29:14.055Z,26.70
2019-05-20T09:31:42.853Z,23.40
2019-05-20T09:34:11.294Z,24.17
2019-05-20T09:36:39.865Z,22.60
2019-05-20T09:39:08.389Z,22.87
2019-05-20T09:41:36.845Z,23.40
2019-05-20T09:44:05.397Z,24.50
2019-05-20T09:46:33.851Z,23.40
2019-05-20T09:49:02.278Z,22.97
2019-05-20T09:51:30.804Z,23.47
2019-05-20T09:53:59.301Z,22.07
2019-05-20T09:56:27.795Z,23.17
2019-05-20T09:58:56.430Z,23.60
2019-05-20T10:01:25.013Z,24.40
2019-05-20T10:03:53.463Z,24.17
2019-05-20T10:06:21.969Z,22.50
2019-05-20T10:08:50.440Z,20.90
2019-05-20T10:11:19.104Z,25.40
2019-05-20T10:13:47.689Z,20.50
2019-05-20T10:16:16.174Z,21.57
2019-05-20T10:18:44.671Z,21.47
2019-05-20T10:21:13.095Z,22.03
2019-05-20T10:23:41.549Z,23.43
2019-05-20T10:26:09.966Z,21.03
2019-05-20T10:28:41.894Z,25.10
2019-05-20T10:31:08.632Z,21.30
2019-05-20T10:33:37.308Z,20.50
2019-05-20T10:36:05.873Z,21.30
2019-05-20T10:38:34.355Z,21.23
2019-05-20T10:41:02.848Z,23.80
2019-05-20T10:43:31.288Z,18.57
2019-05-20T10:45:59.772Z,31.50
2019-05-20T10:48:28.313Z,24.67
2019-05-20T10:50:56.764Z,22.17
2019-05-20T10:53:28.254Z,21.60
2019-05-20T10:55:55.495Z,22.70
2019-05-20T10:58:24.059Z,22.10
2019-05-20T11:01:02.485Z,21.47
2019-05-20T11:03:22.698Z,24.73
2019-05-20T11:05:51.162Z,22.30
2019-05-20T11:08:19.658Z,23.30
2019-05-20T11:10:48.226Z,19.93
2019-05-20T11:13:16.850Z,22.00
2019-05-20T11:15:45.404Z,20.80
2019-05-20T11:18:13.928Z,21.67
2019-05-20T11:20:42.447Z,26.57
2019-05-20T11:23:10.880Z,26.10
2019-05-20T11:25:39.347Z,22.17
2019-05-20T11:28:11.705Z,23.50
2019-05-20T11:30:38.095Z,27.37
2019-05-20T11:33:06.524Z,30.43
2019-05-20T11:35:36.669Z,24.70
2019-05-20T11:38:05.133Z,26.60
2019-05-20T11:40:33.847Z,32.13
2019-05-20T11:43:02.260Z,27.10
2019-05-20T11:45:30.795Z,27.77
2019-05-20T11:47:59.238Z,27.83
2019-05-20T11:50:27.674Z,32.80
2019-05-20T11:52:56.123Z,31.43
2019-05-20T11:55:24.584Z,37.17
2019-05-20T11:57:53.175Z,30.77
2019-05-20T12:00:21.876Z,33.43
2019-05-20T12:02:50.309Z,34.90
2019-05-20T12:05:19.441Z,38.00
2019-05-20T12:07:47.877Z,36.73
2019-05-20T12:10:17.618Z,33.80
2019-05-20T12:12:46.332Z,32.07
2019-05-20T12:15:16.846Z,26.80
2019-05-20T12:17:45.319Z,24.47
2019-05-20T12:20:14.325Z,24.43
2019-05-20T12:22:42.901Z,22.20
2019-05-20T12:25:11.677Z,27.40
2019-05-20T12:27:40.135Z,22.73
2019-05-20T12:30:09.561Z,21.50
2019-05-20T12:32:38.192Z,17.17
2019-05-20T12:35:08.180Z,20.70
2019-05-20T12:37:36.820Z,18.47
2019-05-20T12:40:08.294Z,18.20
2019-05-20T12:42:38.794Z,15.23
2019-05-20T12:45:09.264Z,15.57
2019-05-20T12:47:37.977Z,14.33
2019-05-20T12:50:07.103Z,14.60
2019-05-20T12:52:35.761Z,11.17
2019-05-20T12:55:09.097Z,12.43
2019-05-20T12:57:36.572Z,11.23
2019-05-20T13:00:13.553Z,10.60
2019-05-20T13:02:43.005Z,11.93
2019-05-20T13:05:13.414Z,12.73
2019-05-20T13:07:41.978Z,11.30
2019-05-20T13:10:28.253Z,10.83
2019-05-20T13:12:41.479Z,11.33
2019-05-20T13:15:11.527Z,10.43
2019-05-20T13:17:44.268Z,11.83
2019-05-20T13:20:10.815Z,11.30
2019-05-20T13:22:39.265Z,11.30
2019-05-20T13:25:08.581Z,9.50
2019-05-20T13:27:37.055Z,9.77
2019-05-20T13:30:07.569Z,10.77
2019-05-20T13:32:36.005Z,10.73
2019-05-20T13:35:06.795Z,11.17
2019-05-20T13:37:35.279Z,9.80
2019-05-20T13:40:07.896Z,12.23
2019-05-20T13:42:36.610Z,11.43
2019-05-20T13:45:06.609Z,10.50
2019-05-20T13:47:35.113Z,14.20
2019-05-20T13:50:06.499Z,14.27
2019-05-20T13:52:34.919Z,14.50
2019-05-20T13:55:05.322Z,12.67
2019-05-20T13:57:33.751Z,13.63
2019-05-20T14:00:02.248Z,13.93
2019-05-20T14:02:30.756Z,17.50
2019-05-20T14:04:59.243Z,13.60
2019-05-20T14:07:27.680Z,16.17
2019-05-20T14:09:56.153Z,15.33
2019-05-20T14:12:24.654Z,19.00
2019-05-20T14:14:53.113Z,17.30
2019-05-20T14:17:23.080Z,18.30
2019-05-20T14:19:51.532Z,18.77
2019-05-20T14:22:19.955Z,20.20
2019-05-20T14:24:48.385Z,22.67
2019-05-20T14:27:16.888Z,26.37
2019-05-20T14:29:45.340Z,22.70
2019-05-20T14:32:13.863Z,23.23
2019-05-20T14:34:42.317Z,25.23
2019-05-20T14:37:10.827Z,23.87
2019-05-20T14:39:39.315Z,28.37
2019-05-20T14:42:07.832Z,24.33
2019-05-20T14:44:36.269Z,31.30
2019-05-20T14:47:04.707Z,31.80
2019-05-20T14:49:33.232Z,27.70
2019-05-20T14:52:01.848Z,29.30
2019-05-20T14:54:30.354Z,25.80
2019-05-20T14:56:58.794Z,28.07
2019-05-20T14:59:27.400Z,31.23
2019-05-20T15:01:57.415Z,33.53
2019-05-20T15:04:25.842Z,35.73
2019-05-20T15:06:54.307Z,29.30
2019-05-20T15:09:22.800Z,33.03
2019-05-20T15:11:51.264Z,32.07
2019-05-20T15:14:19.687Z,34.90
2019-05-20T15:16:48.170Z,36.40
2019-05-20T15:19:16.700Z,36.60
2019-05-20T15:21:45.217Z,36.03
2019-05-20T15:24:13.753Z,34.80
2019-05-20T15:26:42.340Z,35.13
2019-05-20T15:29:27.063Z,40.77
2019-05-20T15:31:41.085Z,39.97
2019-05-20T15:34:09.503Z,48.80
2019-05-20T15:36:37.954Z,43.73
2019-05-20T15:39:07.193Z,41.13
2019-05-20T15:41:35.762Z,40.43
2019-05-20T15:44:04.574Z,43.13
2019-05-20T15:46:34.610Z,42.23
2019-05-20T15:49:03.061Z,42.93
2019-05-20T15:51:31.508Z,39.13
2019-05-20T15:54:00.115Z,42.93
2019-05-20T15:56:28.537Z,46.90
2019-05-20T15:58:57.054Z,40.37
2019-05-20T16:01:25.519Z,48.03
2019-05-20T16:03:53.980Z,42.37
2019-05-20T16:06:22.426Z,46.97
2019-05-20T16:08:52.492Z,46.23
2019-05-20T16:11:20.935Z,46.63
2019-05-20T16:13:49.452Z,48.83
2019-05-20T16:16:19.555Z,49.63
2019-05-20T16:18:48.073Z,44.60
2019-05-20T16:21:16.585Z,47.60
2019-05-20T16:23:45.045Z,54.70
2019-05-20T16:26:13.488Z,48.33
2019-05-20T16:28:41.959Z,41.57
2019-05-20T16:31:10.470Z,54.77
2019-05-20T16:33:39.076Z,50.33
2019-05-20T16:36:08.162Z,48.30
2019-05-20T16:38:36.726Z,47.40
2019-05-20T16:41:05.360Z,50.97
2019-05-20T16:43:33.994Z,54.87
2019-05-20T16:46:02.606Z,51.40
2019-05-20T16:48:31.025Z,48.10
2019-05-20T16:50:59.490Z,53.10
2019-05-20T16:53:27.990Z,56.93
2019-05-20T16:55:56.680Z,52.73
2019-05-20T16:58:25.109Z,59.17
2019-05-20T17:00:53.666Z,68.63
2019-05-20T17:03:22.167Z,68.97
2019-05-20T17:05:50.659Z,64.77
2019-05-20T17:08:19.188Z,53.43
2019-05-20T17:10:47.736Z,52.23
2019-05-20T17:13:16.147Z,44.80
2019-05-20T17:15:44.661Z,42.90
2019-05-20T17:18:13.166Z,37.30
2019-05-20T17:20:45.791Z,35.30
2019-05-20T17:23:11.938Z,30.73
2019-05-20T17:25:42.469Z,30.80
2019-05-20T17:28:10.907Z,26.93
2019-05-20T17:30:45.535Z,24.37
2019-05-20T17:33:09.818Z,22.17
2019-05-20T17:35:38.552Z,24.93
2019-05-20T17:38:07.178Z,24.00
2019-05-20T17:40:35.816Z,22.50
2019-05-20T17:43:04.569Z,25.90
2019-05-20T17:45:34.566Z,19.60
2019-05-20T17:48:03.186Z,28.40
2019-05-20T17:50:32.067Z,35.37
2019-05-20T17:53:00.546Z,25.47
2019-05-20T17:55:29.825Z,23.83
2019-05-20T17:57:58.712Z,28.90
2019-05-20T18:00:27.274Z,22.93
2019-05-20T18:02:55.743Z,21.17
2019-05-20T18:05:25.736Z,22.50
2019-05-20T18:07:54.251Z,26.23
2019-05-20T18:10:24.372Z,31.07
2019-05-20T18:12:53.100Z,26.10
2019-05-20T18:15:21.874Z,25.20
2019-05-20T18:17:53.023Z,27.57
2019-05-20T18:20:21.667Z,26.27
2019-05-20T18:22:50.377Z,27.30
2019-05-20T18:25:18.908Z,25.67
2019-05-20T18:27:47.399Z,25.73
2019-05-20T18:30:17.707Z,23.10
2019-05-20T18:32:46.875Z,26.00
2019-05-20T18:35:15.527Z,24.73
2019-05-20T18:37:44.224Z,29.07
2019-05-20T18:40:15.081Z,35.00
2019-05-20T18:42:43.891Z,33.33
2019-05-20T18:45:12.508Z,37.07
2019-05-20T18:47:40.950Z,32.13
2019-05-20T18:50:10.122Z,36.80
2019-05-20T18:52:38.698Z,31.40
2019-05-20T18:55:07.574Z,34.20
2019-05-20T18:57:36.100Z,35.50
2019-05-20T19:00:08.324Z,42.37
2019-05-20T19:02:36.811Z,41.60
2019-05-20T19:05:07.333Z,40.97
2019-05-20T19:07:35.841Z,40.53
2019-05-20T19:10:06.631Z,38.80
2019-05-20T19:12:35.049Z,42.40
2019-05-20T19:15:04.609Z,44.47
2019-05-20T19:17:33.077Z,42.77
2019-05-20T19:20:01.620Z,40.67
2019-05-20T19:22:30.214Z,43.17
2019-05-20T19:24:58.686Z,46.00
2019-05-20T19:27:27.148Z,44.20
2019-05-20T19:29:55.696Z,49.10
2019-05-20T19:32:24.441Z,39.33
2019-05-20T19:34:53.032Z,33.93
2019-05-20T19:37:21.460Z,49.90
2019-05-20T19:39:49.952Z,35.60
2019-05-20T19:42:18.561Z,36.73
2019-05-20T19:44:47.102Z,40.40
2019-05-20T19:47:15.619Z,42.53
2019-05-20T19:49:44.106Z,46.00
2019-05-20T19:52:12.555Z,44.10
2019-05-20T19:54:41.011Z,39.40
2019-05-20T19:57:09.477Z,44.40
2019-05-20T19:59:38.031Z,43.83
2019-05-20T20:02:16.808Z,40.77
2019-05-20T20:04:36.950Z,37.87
2019-05-20T20:07:05.559Z,35.27
2019-05-20T20:09:34.062Z,37.07
2019-05-20T20:12:02.596Z,36.33
2019-05-20T20:14:31.105Z,38.27
2019-05-20T20:16:59.574Z,36.70
2019-05-20T20:19:28.084Z,37.13
2019-05-20T20:21:56.538Z,39.70
2019-05-20T20:24:25.053Z,41.10
2019-05-20T20:26:53.604Z,39.60
2019-05-20T20:29:23.834Z,41.97
2019-05-20T20:31:52.454Z,38.60
2019-05-20T20:34:20.986Z,43.57
2019-05-20T20:36:49.431Z,36.70
2019-05-20T20:39:17.924Z,37.13
2019-05-20T20:41:46.387Z,41.43
2019-05-20T20:44:14.890Z,41.83
2019-05-20T20:46:43.419Z,36.80
2019-05-20T20:49:14.739Z,36.63
2019-05-20T20:51:42.932Z,31.00
2019-05-20T20:54:11.355Z,24.47
2019-05-20T20:56:39.864Z,19.03
2019-05-20T20:59:09.479Z,21.93
2019-05-20T21:01:38.043Z,16.87
2019-05-20T21:04:08.022Z,12.93
2019-05-20T21:06:36.523Z,13.93
2019-05-20T21:09:06.425Z,11.90
2019-05-20T21:11:34.853Z,10.13
2019-05-20T21:14:03.310Z,11.47
2019-05-20T21:16:31.726Z,12.47
2019-05-20T21:19:01.833Z,21.83
2019-05-20T21:21:31.958Z,13.60
2019-05-20T21:24:00.432Z,17.07
2019-05-20T21:26:30.414Z,18.50
2019-05-20T21:28:58.875Z,16.87
2019-05-20T21:31:27.303Z,16.63
2019-05-20T21:33:55.832Z,16.23
2019-05-20T21:36:24.276Z,18.40
2019-05-20T21:38:52.730Z,16.43
2019-05-20T21:41:21.234Z,17.20
2019-05-20T21:43:49.688Z,21.10
2019-05-20T21:46:18.123Z,21.60
2019-05-20T21:48:48.110Z,22.13
2019-05-20T21:51:16.543Z,17.30
2019-05-20T21:53:45.002Z,20.43
2019-05-20T21:56:15.152Z,24.60
2019-05-20T21:58:43.629Z,26.43
2019-05-20T22:01:12.242Z,25.77
2019-05-20T22:03:40.731Z,23.23
2019-05-20T22:06:09.145Z,24.43
2019-05-20T22:08:37.570Z,27.27
2019-05-20T22:11:06.138Z,34.00
2019-05-20T22:13:34.726Z,34.30
2019-05-20T22:16:03.416Z,32.80
2019-05-20T22:18:31.915Z,29.23
2019-05-20T22:21:00.438Z,29.87
2019-05-20T22:23:39.931Z,30.30
2019-05-20T22:26:08.382Z,29.40
2019-05-20T22:28:36.820Z,28.80
2019-05-20T22:31:05.385Z,30.10
2019-05-20T22:33:41.633Z,33.70
2019-05-20T22:36:04.067Z,32.30
2019-05-20T22:38:34.040Z,30.20
2019-05-20T22:41:02.490Z,36.60
2019-05-20T22:43:30.996Z,36.87
2019-05-20T22:45:59.444Z,32.63
2019-05-20T22:48:27.943Z,30.00
2019-05-20T22:50:56.403Z,31.63
2019-05-20T22:53:24.843Z,28.80
2019-05-20T22:55:53.289Z,32.80
2019-05-20T22:58:21.742Z,31.20
2019-05-20T23:00:50.277Z,30.83
2019-05-20T23:03:19.077Z,27.20
2019-05-20T23:05:47.505Z,29.97
2019-05-20T23:08:16.025Z,21.80
2019-05-20T23:10:44.559Z,21.40
2019-05-20T23:13:12.998Z,20.67
2019-05-20T23:15:41.510Z,21.50
2019-05-20T23:18:10.053Z,21.30
2019-05-20T23:20:38.539Z,20.17
2019-05-20T23:23:08.747Z,25.33
2019-05-20T23:25:37.165Z,25.43
2019-05-20T23:28:05.619Z,28.80
2019-05-20T23:30:34.055Z,31.73
2019-05-20T23:33:02.507Z,31.83
2019-05-20T23:35:30.934Z,39.10
2019-05-20T23:37:59.490Z,31.53
2019-05-20T23:40:27.922Z,31.97
2019-05-20T23:42:56.376Z,36.30
2019-05-20T23:45:24.822Z,32.70
2019-05-20T23:47:53.491Z,29.03
2019-05-20T23:50:21.918Z,32.77
2019-05-20T23:52:50.378Z,29.77
2019-05-20T23:55:18.932Z,30.07
2019-05-20T23:57:47.398Z,25.43
